Alva, FL (33920)

3:33 AM EST on February 08, 2016 (GMT -0500)
Gary & Lori River Oaks Alva | | Change Station
CLOSE
Current Station
Personal Weather Station
Location: Alva, FL
Elevation: 11 ft
Nearby Weather Stations

Elev 11 ft 26.71 °N, 81.62 °W | Updated 2 minutes ago

Clear
Clear
40.0 °F
Feels Like 40 °F
N
0.0
Wind Variable Wind from WSW
Gusts 0.0 mph

Today
High -- | Low -- °F
--% Chance of Precip.
Yesterday
High -- | Low -- °F
Precip. -- in
Pressure 30.07 in
Visibility 10.0 miles
Clouds Clear
Windchill 40 °F
Dew Point 39 °F
Humidity 96%
Rainfall 0.00 in
Snow Depth Not available.
7:07 AM 6:13 PM
Waning Crescent, 0% visible
METAR KRSW 080753Z 00000KT 10SM CLR 09/04 A3008 RMK AO2 SLP183 T00890044
Pressure 30.07 in
Visibility 10.0 miles
Clouds Clear
Windchill 40 °F
Dew Point 39 °F
Humidity 96%
Rainfall 0.00 in
Snow Depth Not available.
7:07 AM 6:13 PM
Waning Crescent, 0% visible
METAR KRSW 080753Z 00000KT 10SM CLR 09/04 A3008 RMK AO2 SLP183 T00890044

10-Day Weather Forecast

Almanac

Astronomy

Feb. 08, 2016 Rise Set
Actual Time
Civil Twilight
Nautical Twilight
Astronomical Twilight
Moon
Length of Visible Light
Length of Day
Tomorrow will be .
, % of the Moon is Illuminated

Today's Extremes

State Highs State Lows

Community

WunderPhotos

Upload Photos

1,891,412 photos uploaded!

WunderBlog® & News

Nearby

Air Quality

  Air Quality AQ Index Pollutant
Not available.

Snow Depth

Station Depth Elevation

Earthquake Activity

City Distance Mag. Time & Date
Minimum magnitude displayed is 2.5.

Coastal Water Temperatures

Place Temperature

Stations

Nearby Weather Stations

Station Location Temp. Windchill Dew Point Humidity Wind Precip. Elev Updated Type
                   

Watches & Warnings

There are currently no watches in effect.